Westminster, California
Current Conditions -  °F | °C
As of 4:58 AM on Friday 24 Oct 2014 (Local Time) from KSLI Reporting Station
Clear Clear  
Wind Chill: 14°   Ceiling: Unl
Heat Index: 14°   Visibility: 10mi
Dew Point: 14°   Wind: 1mph
Humidity: 97%   Direction: 10°N
Pressure: 29.95"   Gusts: NA
Location:  33.76°N, 117.98°W
Report Text: KSLI 241158Z AUTO 01001KT 10SM CLR 14/14 A2995 RMK AO2 SLP145 T01400136 10173 20131 55005
Loading
Personal Weather Stations






























Interactive Weather Map
Tropical Storm Tracking
New forecast layout! Learn more

10-Day Weather Forecast

Advertisements
Track Severe Weather on mobile